Time;durP1;ratioP1;P1;durP2;ratioP2;P2;SDS_P1;SDS_P2;PMS_P1;PMS_P2;Temp;Humidity;BMP_temperature;BMP_pressure;BME280_temperature;BME280_humidity;BME280_pressure;Samples;Min_cycle;Max_cycle;Signal;HPM_P1;HPM_P2
2022/01/27 00:00:16;;;;;;;23.52;3.55;;;;;;;4.93;84.07;99647.78;5062957;28;20055;-70
2022/01/27 00:07:38;;;;;;;23.67;4.03;;;;;;;4.80;85.19;99628.88;5066785;28;20377;-71
2022/01/27 00:12:36;;;;;;;26.38;4.25;;;;;;;4.71;85.78;99606.53;5066601;28;20040;-70
2022/01/27 00:15:14;;;;;;;19.75;4.10;;;;;;;4.63;85.94;99585.13;5066114;28;20024;-71
2022/01/27 00:17:47;;;;;;;14.02;3.75;;;;;;;4.62;86.23;99588.53;5066170;28;20472;-71
2022/01/27 00:20:14;;;;;;;10.48;3.08;;;;;;;4.56;86.75;99578.22;5066197;28;20100;-71
2022/01/27 00:22:42;;;;;;;15.10;3.15;;;;;;;4.40;87.39;99552.47;5048290;28;20100;-71
2022/01/27 00:25:08;;;;;;;13.15;3.45;;;;;;;4.50;87.83;99567.94;5066401;28;20021;-70
2022/01/27 00:27:34;;;;;;;14.75;3.47;;;;;;;4.51;87.64;99559.34;5066000;28;20025;-70
2022/01/27 00:30:04;;;;;;;10.98;2.80;;;;;;;4.38;88.03;99525.91;5048125;28;20024;-71
2022/01/27 00:32:31;;;;;;;20.10;3.28;;;;;;;4.50;88.29;99542.22;5066109;28;20021;-70
2022/01/27 00:34:57;;;;;;;15.13;4.15;;;;;;;4.40;88.53;99536.19;5066030;28;20016;-70
2022/01/27 00:37:23;;;;;;;9.38;2.85;;;;;;;4.35;88.73;99523.34;5065784;28;20106;-70
2022/01/27 00:39:48;;;;;;;14.13;2.72;;;;;;;4.43;88.83;99529.34;5065603;28;20103;-70
2022/01/27 00:42:13;;;;;;;7.97;2.58;;;;;;;4.40;88.91;99518.19;5065639;28;20025;-70
2022/01/27 00:44:39;;;;;;;5.22;1.52;;;;;;;4.36;88.83;99512.19;5065866;28;20074;-69
2022/01/27 00:47:05;;;;;;;9.20;2.88;;;;;;;4.24;88.99;99486.47;5065701;28;20029;-69
2022/01/27 00:49:30;;;;;;;6.90;2.13;;;;;;;4.23;89.27;99483.06;5065714;28;20509;-70
2022/01/27 00:51:56;;;;;;;11.40;2.40;;;;;;;4.19;89.43;99468.47;5065795;28;20017;-70
2022/01/27 00:54:26;;;;;;;5.15;1.92;;;;;;;4.26;89.43;99482.19;5065701;28;20331;-68
2022/01/27 00:56:58;;;;;;;11.05;2.65;;;;;;;4.19;89.84;99471.91;5065652;28;20028;-70
2022/01/27 00:59:35;;;;;;;;;;;;;;;4.21;90.57;99461.63;5066043;28;20032;-70
2022/01/27 01:04:36;;;;;;;4.72;1.60;;;;;;;4.14;90.65;99441.94;5065805;28;20025;-69
2022/01/27 01:07:01;;;;;;;7.05;1.85;;;;;;;4.13;90.93;99435.94;5065446;28;20029;-68
2022/01/27 01:34:30;;;;;;;8.50;1.80;;;;;;;4.14;93.71;99347.72;5064767;28;20017;-71
2022/01/27 01:36:58;;;;;;;12.65;1.95;;;;;;;4.14;93.90;99334.88;5064452;28;20106;-73
2022/01/27 01:39:33;;;;;;;10.07;2.10;;;;;;;4.15;94.07;99321.19;5064604;28;20029;-74
2022/01/27 01:42:01;;;;;;;9.40;2.78;;;;;;;4.08;94.24;99314.31;5064629;28;20017;-73
2022/01/27 01:44:27;;;;;;;14.23;2.50;;;;;;;4.20;94.41;99313.50;5064774;28;20047;-74
2022/01/27 01:46:54;;;;;;;8.32;2.08;;;;;;;4.20;94.43;99303.22;5064938;28;20032;-74
2022/01/27 01:49:22;;;;;;;19.85;2.85;;;;;;;4.19;94.61;99296.34;5064262;28;20025;-74
2022/01/27 01:51:49;;;;;;;35.15;5.15;;;;;;;4.25;94.82;99300.63;5064680;28;20017;-72
2022/01/27 01:54:14;;;;;;;8.57;2.22;;;;;;;4.28;95.03;99285.22;5064379;28;20324;-72
2022/01/27 01:56:42;;;;;;;19.90;3.20;;;;;;;4.31;95.07;99264.66;5064554;28;20028;-71
2022/01/27 01:59:09;;;;;;;21.48;3.22;;;;;;;4.38;94.90;99265.50;5064433;28;20025;-71
2022/01/27 02:01:36;;;;;;;12.77;2.97;;;;;;;4.32;95.38;99240.66;5064156;28;20066;-71
2022/01/27 02:04:06;;;;;;;9.57;3.00;;;;;;;4.42;95.47;99242.38;5064523;28;20025;-70
2022/01/27 02:06:40;;;;;;;6.32;2.25;;;;;;;4.47;95.45;99235.47;5046618;28;20036;-71
2022/01/27 02:19:53;;;;;;;13.93;3.50;;;;;;;4.53;95.77;99197.78;5063979;28;20070;-72
2022/01/27 02:22:20;;;;;;;12.13;3.42;;;;;;;4.59;95.66;99203.78;5064007;28;20017;-71
2022/01/27 02:24:45;;;;;;;9.15;2.35;;;;;;;4.60;95.78;99181.47;5063600;28;20017;-71
2022/01/27 02:27:11;;;;;;;16.40;3.78;;;;;;;4.63;95.83;99184.06;5045939;28;20028;-73
2022/01/27 02:29:36;;;;;;;47.75;8.63;;;;;;;4.66;95.83;99172.88;5063576;28;20023;-72
2022/01/27 02:32:02;;;;;;;8.10;3.78;;;;;;;4.61;95.97;99169.47;5045453;28;20116;-71
2022/01/27 02:34:28;;;;;;;11.85;3.75;;;;;;;4.70;95.67;99167.72;5063569;28;20039;-72
2022/01/27 02:36:54;;;;;;;8.38;3.22;;;;;;;4.74;95.41;99154.84;5045498;28;20064;-70
2022/01/27 02:39:20;;;;;;;12.82;3.50;;;;;;;4.69;95.47;99139.47;5063573;28;20025;-71
2022/01/27 02:41:48;;;;;;;15.23;4.28;;;;;;;4.77;95.45;99148.00;5063391;28;20031;-71
2022/01/27 02:44:32;;;;;;;10.18;4.05;;;;;;;4.78;95.34;99138.53;5063404;28;20025;-71
2022/01/27 02:46:59;;;;;;;8.82;3.35;;;;;;;4.77;95.44;99124.84;5063364;28;20056;-71
2022/01/27 02:49:24;;;;;;;13.65;3.80;;;;;;;4.83;95.48;99131.66;5063419;28;20021;-71
2022/01/27 02:51:51;;;;;;;17.00;3.75;;;;;;;4.84;95.37;99121.38;5063594;28;20028;-70
2022/01/27 02:54:16;;;;;;;12.70;3.67;;;;;;;4.88;95.45;99126.50;5063229;28;20053;-70
2022/01/27 02:56:46;;;;;;;15.02;3.33;;;;;;;4.79;95.35;99099.97;5063432;28;20028;-69
2022/01/27 02:59:12;;;;;;;12.75;4.82;;;;;;;4.90;95.49;99081.91;5063325;28;20447;-70
2022/01/27 03:01:37;;;;;;;10.27;4.15;;;;;;;4.91;95.57;99096.47;5063013;28;20066;-71
2022/01/27 03:04:03;;;;;;;11.05;3.67;;;;;;;4.94;95.58;99078.44;5063206;28;20085;-71
2022/01/27 03:06:28;;;;;;;9.60;2.88;;;;;;;4.86;95.50;99054.50;5063184;28;20025;-70
2022/01/27 03:08:54;;;;;;;8.90;2.92;;;;;;;4.99;95.65;99074.97;5063261;28;20035;-71
2022/01/27 03:11:53;;;;;;;9.90;3.72;;;;;;;4.93;95.80;99052.75;5063129;28;20025;-70
2022/01/27 03:14:22;;;;;;;16.35;4.30;;;;;;;5.03;95.76;99063.81;5034864;28;20061;-70
2022/01/27 03:16:49;;;;;;;10.32;4.28;;;;;;;5.06;95.77;99053.50;5063145;28;20025;-71
2022/01/27 03:19:14;;;;;;;16.27;5.45;;;;;;;4.99;95.81;99034.69;5063363;28;20025;-71
2022/01/27 03:21:41;;;;;;;17.83;4.63;;;;;;;5.12;95.77;99047.44;5063051;28;20025;-70
2022/01/27 03:24:07;;;;;;;23.77;5.30;;;;;;;5.13;95.82;99047.44;5045097;28;20318;-71
2022/01/27 03:26:33;;;;;;;12.75;5.05;;;;;;;5.15;95.75;99037.13;5061640;28;20081;-70
2022/01/27 03:28:59;;;;;;;17.42;4.07;;;;;;;5.14;95.76;99031.16;5063121;28;20103;-71
2022/01/27 03:31:26;;;;;;;9.77;3.92;;;;;;;5.17;95.79;99025.97;5045039;28;20029;-71
2022/01/27 03:33:51;;;;;;;12.15;5.10;;;;;;;5.20;96.06;99025.97;5062877;28;20028;-71
2022/01/27 03:36:17;;;;;;;11.48;4.22;;;;;;;5.20;96.04;99013.09;5044299;28;20092;-70
2022/01/27 03:38:43;;;;;;;21.15;4.50;;;;;;;5.25;96.06;99018.19;5045737;28;20029;-71
2022/01/27 03:41:09;;;;;;;12.40;4.00;;;;;;;5.19;96.11;98997.66;5047042;28;20025;-72
2022/01/27 03:43:38;;;;;;;7.35;3.53;;;;;;;5.30;96.08;99005.28;5047396;28;20018;-72
2022/01/27 03:46:05;;;;;;;19.58;5.05;;;;;;;5.35;96.23;98994.94;5046829;28;20024;-73
2022/01/27 03:48:30;;;;;;;10.27;4.55;;;;;;;5.37;96.23;98981.19;5046854;28;20028;-71
2022/01/27 03:50:55;;;;;;;11.70;3.97;;;;;;;5.41;96.25;98975.16;5046833;28;20025;-72
2022/01/27 03:53:21;;;;;;;13.43;5.05;;;;;;;5.44;96.45;98980.25;5047060;28;20021;-71
2022/01/27 03:55:47;;;;;;;20.02;4.57;;;;;;;5.39;96.46;98951.13;5046650;28;20037;-70
2022/01/27 03:58:13;;;;;;;12.15;4.25;;;;;;;5.50;96.27;98960.44;5046840;28;20509;-71
2022/01/27 04:00:38;;;;;;;24.63;6.55;;;;;;;5.52;96.37;98961.28;5046896;28;20026;-71
2022/01/27 04:03:08;;;;;;;21.88;6.30;;;;;;;5.53;96.35;98955.25;5046657;28;20022;-71
2022/01/27 04:05:44;;;;;;;16.10;5.57;;;;;;;5.55;96.42;98958.69;5045374;28;20093;-71
2022/01/27 04:08:13;;;;;;;17.20;6.30;;;;;;;5.46;96.31;98934.75;5046793;28;20052;-70
2022/01/27 04:10:39;;;;;;;26.70;6.65;;;;;;;5.57;96.32;98944.09;5046521;28;20036;-72
2022/01/27 04:13:06;;;;;;;22.38;6.00;;;;;;;5.60;96.45;98941.47;5046574;28;20029;-72
2022/01/27 04:15:32;;;;;;;19.73;5.53;;;;;;;5.54;96.56;98915.81;5045250;28;20099;-70
2022/01/27 04:17:58;;;;;;;24.25;6.85;;;;;;;5.61;96.58;98924.31;5046242;28;20469;-70
2022/01/27 04:20:23;;;;;;;23.85;6.15;;;;;;;5.64;96.53;98912.22;5044775;28;20032;-72
2022/01/27 04:22:49;;;;;;;22.08;6.97;;;;;;;5.66;96.60;98905.34;5046408;28;20029;-71
2022/01/27 04:25:15;;;;;;;22.85;5.93;;;;;;;5.60;96.62;98897.69;5046339;28;20028;-71
2022/01/27 04:27:45;;;;;;;34.92;7.20;;;;;;;5.69;96.50;98884.72;5045097;28;20140;-72
2022/01/27 04:30:16;;;;;;;28.67;6.93;;;;;;;5.73;96.72;98897.53;5046323;28;20025;-71
2022/01/27 04:32:55;;;;;;;26.80;7.65;;;;;;;5.73;96.89;98893.25;5046228;28;20025;-71
2022/01/27 04:35:23;;;;;;;30.33;8.85;;;;;;;5.66;96.73;98874.44;5046203;28;20036;-72
2022/01/27 04:48:55;;;;;;;31.00;7.30;;;;;;;5.81;96.86;98849.38;5003602;28;20109;-72
2022/01/27 04:51:23;;;;;;;34.15;9.10;;;;;;;5.82;96.54;98849.34;5003671;28;20061;-73
2022/01/27 04:56:21;;;;;;;36.10;8.87;;;;;;;5.88;96.75;98848.41;5003842;28;20022;-71
2022/01/27 04:58:51;;;;;;;37.90;9.15;;;;;;;5.90;96.87;98844.09;5003672;28;20032;-72
2022/01/27 05:01:18;;;;;;;49.92;9.35;;;;;;;5.87;96.96;98836.41;5003332;28;20038;-71
2022/01/27 05:03:52;;;;;;;37.13;9.80;;;;;;;5.94;96.67;98842.31;5003254;28;20074;-71
2022/01/27 05:06:18;;;;;;;46.78;9.55;;;;;;;5.92;96.74;98829.47;5003045;28;20069;-70
2022/01/27 05:08:43;;;;;;;47.88;9.48;;;;;;;5.93;96.76;98828.59;5003296;28;20062;-70
2022/01/27 05:11:20;;;;;;;41.55;10.02;;;;;;;5.92;96.91;98818.31;5003089;28;20490;-70
2022/01/27 05:13:56;;;;;;;40.55;9.10;;;;;;;5.92;96.68;98826.88;5003158;28;20053;-70
2022/01/27 05:16:22;;;;;;;44.10;10.05;;;;;;;5.93;96.76;98831.16;4986632;28;20283;-72
2022/01/27 05:18:47;;;;;;;43.22;9.82;;;;;;;5.79;96.79;98802.19;5003263;28;20474;-71
2022/01/27 05:21:13;;;;;;;46.35;11.75;;;;;;;5.92;96.75;98808.84;5058097;28;20108;-71
2022/01/27 05:23:38;;;;;;;46.72;10.32;;;;;;;5.94;96.90;98814.00;5047029;28;20032;-71
2022/01/27 05:26:04;;;;;;;47.55;10.10;;;;;;;5.93;96.73;98801.97;5065030;28;20025;-72
2022/01/27 05:28:29;;;;;;;46.67;9.57;;;;;;;5.86;96.89;98783.19;5064773;28;20020;-68
2022/01/27 05:30:54;;;;;;;50.90;10.02;;;;;;;5.94;96.77;98794.22;5064824;28;20051;-72
2022/01/27 05:33:20;;;;;;;51.58;8.60;;;;;;;5.97;96.95;98787.31;5064789;28;20021;-71
2022/01/27 05:35:46;;;;;;;60.08;8.43;;;;;;;5.97;96.94;98785.59;5064456;28;20384;-71
2022/01/27 05:38:15;;;;;;;59.80;10.15;;;;;;;5.98;96.96;98781.28;5064971;28;20029;-71
2022/01/27 05:40:42;;;;;;;51.97;9.20;;;;;;;5.98;96.88;98763.25;5046759;28;20025;-72
2022/01/27 05:43:07;;;;;;;65.28;10.60;;;;;;;5.94;96.71;98760.72;5064640;28;20028;-72
2022/01/27 05:45:33;;;;;;;52.95;10.93;;;;;;;6.00;96.82;98746.06;5065019;28;20082;-70
2022/01/27 05:47:58;;;;;;;58.92;9.23;;;;;;;5.97;96.87;98749.53;5046518;28;20101;-71
2022/01/27 05:50:24;;;;;;;47.65;8.25;;;;;;;5.93;96.57;98733.28;5064436;28;20032;-70
2022/01/27 05:52:49;;;;;;;58.75;9.70;;;;;;;5.90;96.71;98733.31;5064423;28;20339;-69
2022/01/27 05:55:14;;;;;;;49.92;8.85;;;;;;;5.87;96.65;98729.94;5064272;28;20082;-70
2022/01/27 05:57:40;;;;;;;57.78;10.10;;;;;;;5.82;96.58;98724.88;5063924;28;20032;-71
2022/01/27 06:00:06;;;;;;;49.00;8.90;;;;;;;5.77;96.52;98722.38;5064081;28;20049;-71
2022/01/27 06:02:31;;;;;;;53.38;8.48;;;;;;;5.67;96.76;98695.91;5064039;28;20071;-71
2022/01/27 06:04:56;;;;;;;45.28;8.60;;;;;;;5.73;96.46;98707.00;5064285;28;20039;-71
2022/01/27 06:07:22;;;;;;;52.00;8.85;;;;;;;5.72;96.48;98716.44;5064492;28;20020;-71
2022/01/27 06:09:47;;;;;;;61.28;10.00;;;;;;;5.74;96.82;98711.25;5046041;28;20028;-71
2022/01/27 06:12:13;;;;;;;64.18;11.65;;;;;;;5.74;96.64;98711.25;5064507;28;20021;-72
2022/01/27 06:14:38;;;;;;;47.25;9.15;;;;;;;5.75;96.70;98707.81;5045982;28;20016;-72
2022/01/27 06:17:03;;;;;;;70.97;10.00;;;;;;;5.76;96.70;98707.81;5063952;28;20349;-72
2022/01/27 06:19:29;;;;;;;66.20;10.77;;;;;;;5.76;96.74;98704.38;5063856;28;20036;-71
2022/01/27 06:21:54;;;;;;;65.95;11.20;;;;;;;5.66;96.78;98677.91;5063757;28;20017;-72
2022/01/27 06:24:20;;;;;;;64.65;11.10;;;;;;;5.77;96.64;98699.19;5063929;28;20017;-72
2022/01/27 06:26:45;;;;;;;64.68;12.52;;;;;;;5.78;96.72;98697.47;5064109;28;20071;-72
2022/01/27 06:29:10;;;;;;;76.68;11.38;;;;;;;5.78;96.91;98700.06;5063863;28;20493;-74
2022/01/27 06:31:36;;;;;;;78.07;12.32;;;;;;;5.70;96.94;98670.09;5063382;28;20029;-74
2022/01/27 06:34:02;;;;;;;60.25;11.70;;;;;;;5.72;96.61;98676.97;5063761;28;20473;-72
2022/01/27 06:36:27;;;;;;;54.80;11.38;;;;;;;5.80;96.84;98682.81;5063367;28;20044;-72
2022/01/27 06:38:53;;;;;;;76.25;10.85;;;;;;;5.80;96.96;98683.69;5063584;28;20032;-71
2022/01/27 06:41:18;;;;;;;60.72;11.38;;;;;;;5.80;97.16;98659.66;5045762;28;20462;-70
2022/01/27 06:43:43;;;;;;;80.57;10.85;;;;;;;5.82;97.04;98657.91;5063639;28;20273;-72
2022/01/27 06:46:09;;;;;;;67.47;10.77;;;;;;;5.83;97.11;98663.03;5063556;28;20036;-73
2022/01/27 06:48:34;;;;;;;67.15;11.05;;;;;;;5.86;97.04;98644.13;5063491;28;20051;-71
2022/01/27 06:51:03;;;;;;;63.22;10.00;;;;;;;5.78;96.91;98615.91;5063439;28;20036;-71
2022/01/27 06:53:29;;;;;;;63.42;11.25;;;;;;;5.87;97.29;98614.91;5063692;28;20044;-70
2022/01/27 06:55:54;;;;;;;60.10;11.23;;;;;;;5.89;97.23;98627.75;5063512;28;20040;-71
2022/01/27 06:58:20;;;;;;;58.35;10.90;;;;;;;5.91;97.10;98626.00;5063277;28;20131;-75
2022/01/27 07:00:45;;;;;;;56.78;9.63;;;;;;;5.91;97.15;98613.13;5063660;28;20021;-73
2022/01/27 07:03:11;;;;;;;65.30;12.30;;;;;;;5.90;97.27;98596.81;5045229;28;20025;-75
2022/01/27 07:05:37;;;;;;;72.80;13.05;;;;;;;5.85;97.20;98590.06;5063599;28;20021;-73
2022/01/27 07:08:03;;;;;;;75.55;11.82;;;;;;;5.88;97.01;98593.41;5063522;28;20096;-75
2022/01/27 07:10:28;;;;;;;65.20;12.02;;;;;;;5.90;97.00;98599.38;5061988;28;20108;-74
2022/01/27 07:12:54;;;;;;;57.13;10.10;;;;;;;5.83;97.03;98579.78;5063234;28;20024;-75
2022/01/27 07:15:20;;;;;;;71.22;13.65;;;;;;;5.88;97.06;98585.69;5063022;28;20017;-75
2022/01/27 07:17:47;;;;;;;83.60;12.93;;;;;;;5.81;96.95;98564.34;5063098;28;20055;-76
2022/01/27 07:20:12;;;;;;;69.47;12.43;;;;;;;5.83;97.10;98551.47;5063126;28;20088;-77
2022/01/27 07:22:38;;;;;;;54.45;10.18;;;;;;;5.85;97.26;98549.69;5063160;28;20118;-70
2022/01/27 07:25:06;;;;;;;64.20;13.18;;;;;;;5.88;97.73;98541.91;5062939;28;20609;-74
2022/01/27 07:27:32;;;;;;;72.63;10.43;;;;;;;5.97;97.22;98564.06;5062681;28;20021;-74
2022/01/27 07:29:58;;;;;;;67.25;10.05;;;;;;;5.96;97.06;98544.31;5064771;28;20183;-74
2022/01/27 07:32:24;;;;;;;60.70;11.20;;;;;;;5.90;96.91;98535.00;5065206;28;20044;-74
2022/01/27 07:34:49;;;;;;;42.60;8.65;;;;;;;5.86;96.68;98519.63;5047283;28;20050;-73
2022/01/27 07:37:15;;;;;;;74.75;10.35;;;;;;;5.81;96.49;98512.00;5065269;28;20075;-73
2022/01/27 07:39:40;;;;;;;58.65;11.40;;;;;;;5.76;96.68;98519.81;5047334;28;20040;-74
2022/01/27 07:42:06;;;;;;;66.13;12.38;;;;;;;5.73;96.55;98514.72;5065204;28;20021;-75
2022/01/27 07:44:32;;;;;;;57.25;9.75;;;;;;;5.70;96.55;98501.91;5065244;28;20026;-74
2022/01/27 07:46:57;;;;;;;42.95;7.80;;;;;;;5.68;96.66;98490.78;5064816;28;21088;-74
2022/01/27 07:49:23;;;;;;;54.63;8.35;;;;;;;5.56;96.61;98455.81;5064722;28;20060;-74
2022/01/27 07:51:48;;;;;;;48.33;7.70;;;;;;;5.60;96.53;98467.78;5064571;28;20031;-74
2022/01/27 07:54:14;;;;;;;45.30;6.97;;;;;;;5.58;96.54;98448.91;5064336;28;20029;-74
2022/01/27 07:56:39;;;;;;;40.50;7.55;;;;;;;5.55;96.63;98448.97;5064223;28;20106;-73
2022/01/27 07:59:05;;;;;;;47.45;8.50;;;;;;;5.43;96.71;98422.59;5064002;28;20519;-73
2022/01/27 08:01:30;;;;;;;45.60;7.88;;;;;;;5.49;96.75;98433.66;5064252;28;20039;-73
2022/01/27 08:03:55;;;;;;;53.90;10.20;;;;;;;5.49;96.67;98419.06;5064218;28;20108;-72
2022/01/27 08:06:21;;;;;;;55.78;9.00;;;;;;;5.46;96.61;98416.56;5064609;28;20360;-72
2022/01/27 08:08:48;;;;;;;55.40;10.77;;;;;;;5.48;96.53;98407.06;5064364;28;20024;-72
2022/01/27 08:11:13;;;;;;;54.90;9.50;;;;;;;5.44;96.60;98393.44;5064587;28;20017;-72
2022/01/27 08:13:39;;;;;;;50.75;8.73;;;;;;;5.48;96.60;98396.78;5046377;28;20108;-73
2022/01/27 08:16:04;;;;;;;60.47;9.98;;;;;;;5.45;96.62;98397.69;5064288;28;20522;-73
2022/01/27 08:18:30;;;;;;;52.85;12.18;;;;;;;5.44;96.56;98375.41;5064165;28;20029;-72
2022/01/27 08:20:55;;;;;;;49.40;10.00;;;;;;;5.33;96.70;98364.50;5064938;28;20029;-73
2022/01/27 08:23:21;;;;;;;49.63;10.60;;;;;;;5.33;96.48;98361.91;5068237;28;20021;-73
2022/01/27 08:25:49;;;;;;;64.75;11.45;;;;;;;5.38;96.49;98354.09;5068069;28;20063;-73
2022/01/27 08:28:26;;;;;;;55.47;9.52;;;;;;;5.39;96.68;98359.22;5067689;28;20021;-73
2022/01/27 08:30:53;;;;;;;53.22;11.05;;;;;;;5.35;96.67;98357.59;5067678;28;20047;-71
2022/01/27 08:33:20;;;;;;;72.95;14.20;;;;;;;5.36;96.66;98359.28;5067666;28;20357;-74
2022/01/27 08:35:45;;;;;;;69.35;11.60;;;;;;;5.36;96.57;98353.28;5067876;28;20021;-73
2022/01/27 08:38:10;;;;;;;60.08;11.95;;;;;;;5.36;96.61;98335.25;5067904;28;20033;-73
2022/01/27 08:40:36;;;;;;;67.78;10.57;;;;;;;5.35;96.89;98331.88;5067695;28;20029;-74
2022/01/27 08:43:06;;;;;;;54.95;9.00;;;;;;;5.35;96.69;98334.44;5067960;28;20029;-73
2022/01/27 08:45:32;;;;;;;58.10;9.75;;;;;;;5.36;96.86;98325.81;5050140;28;20013;-74
2022/01/27 08:47:58;;;;;;;78.80;11.43;;;;;;;5.36;96.94;98323.25;5049565;28;20032;-73
2022/01/27 08:50:25;;;;;;;59.55;8.73;;;;;;;5.37;96.96;98306.94;5067305;28;20029;-73
2022/01/27 08:52:51;;;;;;;59.78;10.88;;;;;;;5.31;96.98;98276.19;5067442;28;20108;-72
2022/01/27 08:55:16;;;;;;;63.97;8.73;;;;;;;5.41;97.02;98277.69;5049006;28;20017;-72
2022/01/27 08:57:42;;;;;;;69.15;9.98;;;;;;;5.44;96.98;98272.47;5067231;28;20025;-72
2022/01/27 09:00:11;;;;;;;50.00;8.77;;;;;;;5.46;97.06;98273.25;5066977;28;20028;-72
2022/01/27 09:02:36;;;;;;;54.28;7.80;;;;;;;5.42;97.02;98276.81;5049121;28;20032;-73
2022/01/27 09:05:03;;;;;;;52.30;7.63;;;;;;;5.53;97.25;98291.16;5067143;28;20021;-73
2022/01/27 09:07:28;;;;;;;45.13;7.93;;;;;;;5.55;97.18;98290.25;5049623;28;20067;-74
2022/01/27 09:09:54;;;;;;;61.83;11.13;;;;;;;5.57;97.28;98274.78;5067774;28;20029;-72
2022/01/27 09:12:19;;;;;;;57.83;7.93;;;;;;;5.62;97.20;98275.53;5068099;28;20060;-73
2022/01/27 09:14:45;;;;;;;51.83;8.10;;;;;;;5.67;97.37;98263.38;5067454;28;20017;-73
2022/01/27 09:17:13;;;;;;;64.00;8.07;;;;;;;5.71;97.12;98277.03;5049485;28;20025;-72
2022/01/27 09:19:42;;;;;;;54.40;8.57;;;;;;;5.73;97.13;98264.13;5049504;28;20035;-72
2022/01/27 09:22:12;;;;;;;31.65;5.05;;;;;;;5.72;97.19;98252.97;5067235;28;20029;-71
2022/01/27 09:25:07;;;;;;;54.70;8.73;;;;;;;5.76;97.22;98269.19;5067260;28;20017;-71
2022/01/27 09:27:33;;;;;;;58.42;8.55;;;;;;;5.71;97.21;98248.72;5067319;28;20029;-74
2022/01/27 09:29:59;;;;;;;43.95;7.60;;;;;;;5.75;97.10;98262.38;5067286;28;20025;-72
2022/01/27 09:32:26;;;;;;;68.15;11.68;;;;;;;5.65;96.79;98229.13;5048163;28;20021;-74
2022/01/27 09:34:52;;;;;;;51.72;7.53;;;;;;;5.79;96.62;98226.19;5066082;28;20028;-73
2022/01/27 09:37:18;;;;;;;51.75;7.18;;;;;;;5.76;96.28;98215.13;5044858;28;20045;-73
2022/01/27 09:39:44;;;;;;;52.85;8.57;;;;;;;5.86;96.14;98214.03;5046414;28;20083;-73
2022/01/27 09:42:10;;;;;;;48.25;9.20;;;;;;;5.91;95.72;98222.47;5046257;28;20085;-71
2022/01/27 09:44:37;;;;;;;60.35;11.10;;;;;;;5.81;95.61;98213.28;5046517;28;20025;-72
2022/01/27 09:47:08;;;;;;;42.05;6.80;;;;;;;5.98;94.95;98224.88;5045853;28;20104;-71
2022/01/27 09:49:41;;;;;;;36.17;5.70;;;;;;;5.97;94.79;98215.47;5046431;28;20057;-71
2022/01/27 09:52:07;;;;;;;47.97;7.88;;;;;;;5.97;94.20;98182.84;5045899;28;20029;-70
2022/01/27 09:54:34;;;;;;;58.33;8.75;;;;;;;5.97;93.32;98216.34;5045815;28;20021;-73
2022/01/27 09:57:00;;;;;;;50.28;8.38;;;;;;;6.03;92.96;98212.75;5045957;28;20478;-73
2022/01/27 09:59:25;;;;;;;45.42;6.88;;;;;;;6.00;92.84;98208.53;5045852;28;20071;-73
2022/01/27 10:01:57;;;;;;;56.88;8.10;;;;;;;6.06;92.36;98202.41;5045511;28;20386;-75
2022/01/27 10:04:24;;;;;;;;;;;;;;;6.05;91.00;98214.44;5046393;28;20018;-76
2022/01/27 10:06:57;;;;;;;40.03;7.55;;;;;;;6.10;91.38;98201.44;5045423;28;20361;-79
2022/01/27 10:09:29;;;;;;;51.92;8.73;;;;;;;6.15;91.63;98227.09;5044136;28;20120;-77
2022/01/27 10:11:55;;;;;;;42.30;8.45;;;;;;;6.22;91.09;98194.25;5045508;28;20099;-76
2022/01/27 10:14:34;;;;;;;19.30;4.82;;;;;;;6.14;89.75;98204.78;5044362;28;20025;-76
2022/01/27 10:17:02;;;;;;;49.88;7.97;;;;;;;6.18;89.15;98185.78;5061064;28;20022;-74
2022/01/27 10:19:28;;;;;;;53.45;8.43;;;;;;;6.28;89.87;98213.00;5046189;28;20021;-77
2022/01/27 10:22:01;;;;;;;51.67;8.50;;;;;;;6.52;89.84;98187.44;5045975;28;20033;-76
2022/01/27 10:24:29;;;;;;;40.67;8.40;;;;;;;6.66;88.75;98197.38;5046194;28;20036;-75
2022/01/27 10:27:28;;;;;;;45.95;8.75;;;;;;;6.84;87.89;98195.16;5044641;28;20088;-77
2022/01/27 10:32:35;;;;;;;50.38;11.52;;;;;;;6.77;86.33;98188.50;5045931;28;20116;-75
2022/01/27 10:35:02;;;;;;;46.97;8.68;;;;;;;6.92;86.20;98213.00;5045862;28;20085;-76
2022/01/27 10:37:27;;;;;;;48.25;8.02;;;;;;;6.82;85.44;98184.06;5061139;28;20533;-74
2022/01/27 10:39:53;;;;;;;50.70;9.23;;;;;;;6.91;84.61;98201.00;5065893;28;20116;-76
2022/01/27 10:42:22;;;;;;;29.80;5.45;;;;;;;7.01;84.59;98202.41;5047877;28;20495;-76
2022/01/27 10:44:55;;;;;;;38.40;7.05;;;;;;;7.04;84.44;98204.06;5065615;28;20021;-76
2022/01/27 10:47:30;;;;;;;29.65;8.10;;;;;;;7.31;83.34;98204.13;5065552;28;20088;-73
2022/01/27 10:55:14;;;;;;;39.05;7.78;;;;;;;7.16;81.39;98205.41;5065311;28;20029;-75
2022/01/27 10:57:44;;;;;;;36.47;8.38;;;;;;;7.09;81.32;98204.78;5065066;28;20031;-75
2022/01/27 11:00:13;;;;;;;41.38;7.60;;;;;;;6.94;81.33;98214.66;5064751;28;20025;-73
2022/01/27 11:02:49;;;;;;;49.67;7.97;;;;;;;6.70;80.41;98192.97;5064383;28;20366;-75
2022/01/27 11:05:19;;;;;;;33.50;8.57;;;;;;;6.62;80.92;98195.78;5064723;28;20127;-72
2022/01/27 11:07:46;;;;;;;37.47;6.93;;;;;;;6.47;81.23;98186.72;5064743;28;20498;-74
2022/01/27 11:10:11;;;;;;;27.08;5.70;;;;;;;6.32;81.38;98185.41;5064695;28;20029;-73
2022/01/27 11:12:37;;;;;;;47.55;8.18;;;;;;;6.40;81.05;98214.41;5064463;28;20096;-74
2022/01/27 11:15:02;;;;;;;51.50;8.82;;;;;;;6.43;81.26;98193.72;5064459;28;20507;-74
2022/01/27 11:17:33;;;;;;;16.30;4.03;;;;;;;6.51;81.18;98184.91;5046431;28;20021;-71
2022/01/27 11:20:19;;;;;;;39.00;8.57;;;;;;;6.58;80.78;98183.88;5064665;28;20104;-75
2022/01/27 11:22:58;;;;;;;27.08;5.70;;;;;;;6.62;80.37;98184.59;5064329;28;20040;-74
2022/01/27 11:28:00;;;;;;;29.15;6.07;;;;;;;6.49;80.02;98173.78;5064990;28;20029;-73
2022/01/27 11:30:46;;;;;;;40.72;7.45;;;;;;;6.40;79.57;98193.78;5064636;28;20036;-73
2022/01/27 11:33:14;;;;;;;24.92;7.05;;;;;;;6.45;78.94;98167.91;5064243;28;20053;-74
2022/01/27 11:35:40;;;;;;;34.10;6.35;;;;;;;6.37;78.58;98174.97;5064086;28;20025;-73
2022/01/27 11:38:08;;;;;;;42.42;5.43;;;;;;;6.30;77.68;98174.28;5064304;28;20052;-72
2022/01/27 11:40:44;;;;;;;30.90;6.68;;;;;;;6.26;76.62;98183.00;5064133;28;20385;-73
2022/01/27 11:43:18;;;;;;;33.25;5.97;;;;;;;6.24;76.76;98174.47;5046574;28;20031;-72
2022/01/27 11:45:48;;;;;;;36.13;6.75;;;;;;;6.22;76.69;98171.94;5064236;28;20104;-73
2022/01/27 11:48:21;;;;;;;15.82;3.55;;;;;;;6.14;76.79;98171.28;5063991;28;20079;-73
2022/01/27 11:50:53;;;;;;;;;;;;;;;6.25;74.99;98153.81;5064492;28;20029;-75
2022/01/27 11:53:36;;;;;;;30.10;4.85;;;;;;;6.17;75.62;98191.81;5064073;28;19905;-70
2022/01/27 11:56:23;;;;;;;38.40;8.32;;;;;;;6.16;76.35;98192.72;5064865;28;20049;-73
2022/01/27 11:58:54;;;;;;;40.75;6.40;;;;;;;6.09;76.51;98199.75;5068832;28;20024;-73
2022/01/27 12:01:22;;;;;;;29.97;5.37;;;;;;;6.05;76.57;98187.84;5068579;28;20043;-73
2022/01/27 12:04:04;;;;;;;35.28;5.53;;;;;;;6.04;76.26;98186.09;5068375;28;20262;-72
2022/01/27 12:06:32;;;;;;;;;;;;;;;6.08;75.60;98177.44;5068948;28;20029;-72
2022/01/27 12:09:34;;;;;;;21.83;3.60;;;;;;;6.00;75.17;98187.06;5068681;28;19915;-73
2022/01/27 12:12:21;;;;;;;46.10;5.68;;;;;;;5.96;75.69;98170.84;5009182;28;20043;-73
2022/01/27 12:14:48;;;;;;;11.43;3.38;;;;;;;6.02;75.84;98187.88;5068448;28;20029;-72
2022/01/27 12:17:13;;;;;;;41.38;8.90;;;;;;;5.94;75.71;98183.75;5068111;28;20060;-74
2022/01/27 12:19:55;;;;;;;19.88;5.68;;;;;;;6.01;75.49;98189.59;5068581;28;20021;-72
2022/01/27 12:22:25;;;;;;;36.92;7.55;;;;;;;5.93;76.03;98176.06;5050291;28;20101;-72
2022/01/27 12:25:02;;;;;;;36.78;6.43;;;;;;;5.82;76.15;98181.50;5068281;28;20021;-74
2022/01/27 12:27:29;;;;;;;36.83;5.97;;;;;;;5.92;76.45;98185.56;5068614;28;20028;-74
2022/01/27 12:29:58;;;;;;;19.30;4.78;;;;;;;5.93;76.06;98192.38;5068331;28;20067;-70
2022/01/27 12:32:32;;;;;;;40.75;5.70;;;;;;;5.94;75.67;98204.38;5067793;28;20048;-72
2022/01/27 12:35:09;;;;;;;22.45;4.03;;;;;;;5.93;75.48;98191.53;5068043;28;20021;-74
2022/01/27 12:37:35;;;;;;;38.67;6.65;;;;;;;5.98;75.84;98202.56;5067820;28;20072;-75
2022/01/27 12:40:14;;;;;;;23.60;5.20;;;;;;;6.02;75.61;98198.19;5068143;28;20029;-73
2022/01/27 12:42:57;;;;;;;20.10;4.68;;;;;;;5.92;75.20;98185.56;5050124;28;20028;-75
2022/01/27 12:45:29;;;;;;;21.80;5.28;;;;;;;5.91;75.63;98188.16;5068088;28;20012;-73
2022/01/27 12:47:55;;;;;;;32.13;6.63;;;;;;;5.87;75.63;98192.53;5049610;28;20045;-73